Main page
METAR-TAF:

METAR-TAF

Airports :

Baghdad International Airport

Baghdad, Iraq

latitude: 33-15-45N, longitude: 44-14-04E, elevation: 35 m

Current weather observation

The report was made 53 minutes ago, at 01:00 UTC
Wind 4 kt from the East/Southeast
Temperature 15°C
Humidity 44%
Pressure 1014 hPa
Visibility: 7000 m

METAR: ORBI 260100Z 12004KT 7000 NSC 15/03 Q1014 NOSIG

Time: 04:53 (01:53 UTC)

Forecast

The report was made 3 hours and 53 minutes ago, at 22:00 UTC
Forecast valid from 26 at 00 UTC to 26 at 24 UTC
Wind 3 kt from variable directions
Visibility: 8000 m

TAF: ORBI 252200Z 2600/2624 VRB03KT 8000 NSC

Weather observations and forecasts of more than 4000 airports (METAR and TAF reports).

The available stations are represented by yellow and red dots on the map.

Hover mouse over dot to see the name of the station.

Then click to see weather observations and forecasts.

To change the map : click on the green buttons with a black cross to zoom in, on the green button with a dash to zoom out, or on the green arrows for adjacent maps.


METAR-TAF: